sensor_id;sensor_type;location;lat;lon;timestamp;temperature;humidity
56234;DHT22;42141;53.240;6.580;2023-05-10T00:01:24;13.40;99.90
56234;DHT22;42141;53.240;6.580;2023-05-10T00:03:49;13.30;99.90
56234;DHT22;42141;53.240;6.580;2023-05-10T00:06:15;13.30;99.90
56234;DHT22;42141;53.240;6.580;2023-05-10T00:08:41;13.30;99.90
56234;DHT22;42141;53.240;6.580;2023-05-10T00:11:07;13.30;99.90
56234;DHT22;42141;53.240;6.580;2023-05-10T00:13:33;13.20;99.90
56234;DHT22;42141;53.240;6.580;2023-05-10T00:15:59;13.20;99.90
56234;DHT22;42141;53.240;6.580;2023-05-10T00:18:25;13.20;99.90
56234;DHT22;42141;53.240;6.580;2023-05-10T00:20:51;13.20;99.90
56234;DHT22;42141;53.240;6.580;2023-05-10T00:23:16;13.10;99.90
56234;DHT22;42141;53.240;6.580;2023-05-10T00:25:42;13.10;99.90
56234;DHT22;42141;53.240;6.580;2023-05-10T00:28:08;13.20;99.90
56234;DHT22;42141;53.240;6.580;2023-05-10T00:30:33;13.10;99.90
56234;DHT22;42141;53.240;6.580;2023-05-10T00:32:59;13.10;99.90
56234;DHT22;42141;53.240;6.580;2023-05-10T00:35:25;13.00;99.90
56234;DHT22;42141;53.240;6.580;2023-05-10T00:37:51;13.00;99.90
56234;DHT22;42141;53.240;6.580;2023-05-10T00:40:17;13.00;99.90
56234;DHT22;42141;53.240;6.580;2023-05-10T00:42:43;13.10;99.90
56234;DHT22;42141;53.240;6.580;2023-05-10T00:45:08;13.00;99.90
56234;DHT22;42141;53.240;6.580;2023-05-10T00:47:35;13.00;99.90
56234;DHT22;42141;53.240;6.580;2023-05-10T00:50:01;13.00;99.90
56234;DHT22;42141;53.240;6.580;2023-05-10T00:52:28;12.90;99.90
56234;DHT22;42141;53.240;6.580;2023-05-10T00:54:54;12.90;99.90
56234;DHT22;42141;53.240;6.580;2023-05-10T00:57:21;13.00;99.90
56234;DHT22;42141;53.240;6.580;2023-05-10T00:59:47;13.90;99.90
56234;DHT22;42141;53.240;6.580;2023-05-10T01:02:13;13.00;99.90
56234;DHT22;42141;53.240;6.580;2023-05-10T01:04:39;12.90;99.90
56234;DHT22;42141;53.240;6.580;2023-05-10T01:07:06;12.90;99.90
56234;DHT22;42141;53.240;6.580;2023-05-10T01:09:32;12.90;99.90
56234;DHT22;42141;53.240;6.580;2023-05-10T01:11:58;13.00;99.90
56234;DHT22;42141;53.240;6.580;2023-05-10T01:14:25;12.90;99.90
56234;DHT22;42141;53.240;6.580;2023-05-10T01:16:52;12.90;99.90
56234;DHT22;42141;53.240;6.580;2023-05-10T01:19:22;12.90;99.90
56234;DHT22;42141;53.240;6.580;2023-05-10T01:32:43;12.80;99.90
56234;DHT22;42141;53.240;6.580;2023-05-10T01:35:23;12.90;99.90
56234;DHT22;42141;53.240;6.580;2023-05-10T01:38:04;12.80;99.90
56234;DHT22;42141;53.240;6.580;2023-05-10T01:40:37;12.80;99.90
56234;DHT22;42141;53.240;6.580;2023-05-10T01:43:08;12.80;99.90
56234;DHT22;42141;53.240;6.580;2023-05-10T01:45:41;12.80;99.90
56234;DHT22;42141;53.240;6.580;2023-05-10T01:48:11;12.80;99.90
56234;DHT22;42141;53.240;6.580;2023-05-10T01:50:41;12.80;99.90
56234;DHT22;42141;53.240;6.580;2023-05-10T01:53:09;12.70;99.90
56234;DHT22;42141;53.240;6.580;2023-05-10T01:55:49;12.70;99.90
56234;DHT22;42141;53.240;6.580;2023-05-10T01:58:29;12.70;99.90
56234;DHT22;42141;53.240;6.580;2023-05-10T02:00:57;12.70;99.90
56234;DHT22;42141;53.240;6.580;2023-05-10T02:03:25;12.60;99.90
56234;DHT22;42141;53.240;6.580;2023-05-10T02:05:54;12.70;99.90
56234;DHT22;42141;53.240;6.580;2023-05-10T02:08:21;12.70;99.90
56234;DHT22;42141;53.240;6.580;2023-05-10T02:10:50;12.70;99.90
56234;DHT22;42141;53.240;6.580;2023-05-10T02:13:18;12.60;99.90
56234;DHT22;42141;53.240;6.580;2023-05-10T02:15:47;12.70;99.90
56234;DHT22;42141;53.240;6.580;2023-05-10T02:18:14;12.80;99.90
56234;DHT22;42141;53.240;6.580;2023-05-10T02:20:42;12.60;99.90
56234;DHT22;42141;53.240;6.580;2023-05-10T02:23:09;12.60;99.90
56234;DHT22;42141;53.240;6.580;2023-05-10T02:25:35;12.70;99.90
56234;DHT22;42141;53.240;6.580;2023-05-10T02:28:04;12.60;99.90
56234;DHT22;42141;53.240;6.580;2023-05-10T02:30:32;12.60;99.90
56234;DHT22;42141;53.240;6.580;2023-05-10T02:32:59;12.60;99.90
56234;DHT22;42141;53.240;6.580;2023-05-10T02:35:26;12.60;99.90
56234;DHT22;42141;53.240;6.580;2023-05-10T02:37:52;12.70;99.90
56234;DHT22;42141;53.240;6.580;2023-05-10T02:40:19;12.60;99.90
56234;DHT22;42141;53.240;6.580;2023-05-10T02:42:47;12.60;99.90
56234;DHT22;42141;53.240;6.580;2023-05-10T02:45:18;12.60;99.90
56234;DHT22;42141;53.240;6.580;2023-05-10T02:47:44;12.60;99.90
56234;DHT22;42141;53.240;6.580;2023-05-10T02:50:10;12.50;99.90
56234;DHT22;42141;53.240;6.580;2023-05-10T02:52:43;12.60;99.90
56234;DHT22;42141;53.240;6.580;2023-05-10T02:55:12;12.60;99.90
56234;DHT22;42141;53.240;6.580;2023-05-10T02:58:02;12.60;99.90
56234;DHT22;42141;53.240;6.580;2023-05-10T03:00:28;12.60;99.90
56234;DHT22;42141;53.240;6.580;2023-05-10T03:02:53;12.50;99.90
56234;DHT22;42141;53.240;6.580;2023-05-10T03:05:20;12.50;99.90
56234;DHT22;42141;53.240;6.580;2023-05-10T03:07:46;12.50;99.90
56234;DHT22;42141;53.240;6.580;2023-05-10T03:10:12;12.50;99.90
56234;DHT22;42141;53.240;6.580;2023-05-10T03:13:01;12.50;99.90
56234;DHT22;42141;53.240;6.580;2023-05-10T03:15:55;12.50;99.90
56234;DHT22;42141;53.240;6.580;2023-05-10T03:18:29;12.50;99.90
56234;DHT22;42141;53.240;6.580;2023-05-10T03:21:03;12.50;99.90
56234;DHT22;42141;53.240;6.580;2023-05-10T03:23:50;12.50;99.90
56234;DHT22;42141;53.240;6.580;2023-05-10T03:26:25;12.50;99.90
56234;DHT22;42141;53.240;6.580;2023-05-10T03:28:52;12.50;99.90
56234;DHT22;42141;53.240;6.580;2023-05-10T03:31:19;12.50;99.90
56234;DHT22;42141;53.240;6.580;2023-05-10T03:33:51;12.50;99.90
56234;DHT22;42141;53.240;6.580;2023-05-10T03:36:18;12.50;99.90
56234;DHT22;42141;53.240;6.580;2023-05-10T03:38:44;12.50;99.90
56234;DHT22;42141;53.240;6.580;2023-05-10T03:41:10;12.50;99.90
56234;DHT22;42141;53.240;6.580;2023-05-10T03:43:35;12.50;99.90
56234;DHT22;42141;53.240;6.580;2023-05-10T03:46:05;12.50;99.90
56234;DHT22;42141;53.240;6.580;2023-05-10T03:48:32;12.50;99.90
56234;DHT22;42141;53.240;6.580;2023-05-10T03:50:58;12.50;99.90
56234;DHT22;42141;53.240;6.580;2023-05-10T03:53:24;12.50;99.90
56234;DHT22;42141;53.240;6.580;2023-05-10T03:55:50;12.50;99.90
56234;DHT22;42141;53.240;6.580;2023-05-10T03:58:15;12.50;99.90
56234;DHT22;42141;53.240;6.580;2023-05-10T04:00:41;12.50;99.90
56234;DHT22;42141;53.240;6.580;2023-05-10T04:03:10;12.50;99.90
56234;DHT22;42141;53.240;6.580;2023-05-10T04:05:36;12.50;99.90
56234;DHT22;42141;53.240;6.580;2023-05-10T04:08:02;12.50;99.90
56234;DHT22;42141;53.240;6.580;2023-05-10T04:10:28;12.50;99.90
56234;DHT22;42141;53.240;6.580;2023-05-10T04:12:54;12.90;99.90
56234;DHT22;42141;53.240;6.580;2023-05-10T04:15:20;12.80;99.90
56234;DHT22;42141;53.240;6.580;2023-05-10T04:17:45;12.40;99.90
56234;DHT22;42141;53.240;6.580;2023-05-10T04:20:12;12.40;99.90
56234;DHT22;42141;53.240;6.580;2023-05-10T04:22:38;12.40;99.90
56234;DHT22;42141;53.240;6.580;2023-05-10T04:25:04;12.40;99.90
56234;DHT22;42141;53.240;6.580;2023-05-10T04:27:30;12.40;99.90
56234;DHT22;42141;53.240;6.580;2023-05-10T04:29:56;12.40;99.90
56234;DHT22;42141;53.240;6.580;2023-05-10T04:32:23;12.40;99.90
56234;DHT22;42141;53.240;6.580;2023-05-10T04:34:48;12.40;99.90
56234;DHT22;42141;53.240;6.580;2023-05-10T04:37:14;12.30;99.90
56234;DHT22;42141;53.240;6.580;2023-05-10T04:39:40;12.40;99.90
56234;DHT22;42141;53.240;6.580;2023-05-10T04:42:06;12.40;99.90
56234;DHT22;42141;53.240;6.580;2023-05-10T04:44:34;12.40;99.90
56234;DHT22;42141;53.240;6.580;2023-05-10T04:47:00;12.40;99.90
56234;DHT22;42141;53.240;6.580;2023-05-10T04:49:28;13.10;99.90
56234;DHT22;42141;53.240;6.580;2023-05-10T04:51:54;12.40;99.90
56234;DHT22;42141;53.240;6.580;2023-05-10T04:54:19;12.30;99.90
56234;DHT22;42141;53.240;6.580;2023-05-10T04:56:45;12.40;99.90
56234;DHT22;42141;53.240;6.580;2023-05-10T04:59:11;12.40;99.90
56234;DHT22;42141;53.240;6.580;2023-05-10T05:01:36;12.40;99.90
56234;DHT22;42141;53.240;6.580;2023-05-10T05:04:02;12.40;99.90
56234;DHT22;42141;53.240;6.580;2023-05-10T05:06:28;12.40;99.90
56234;DHT22;42141;53.240;6.580;2023-05-10T05:08:54;12.40;99.90
56234;DHT22;42141;53.240;6.580;2023-05-10T05:11:19;12.30;99.90
56234;DHT22;42141;53.240;6.580;2023-05-10T05:13:46;11.20;99.90
56234;DHT22;42141;53.240;6.580;2023-05-10T05:16:12;12.40;99.90
56234;DHT22;42141;53.240;6.580;2023-05-10T05:18:38;12.40;99.90
56234;DHT22;42141;53.240;6.580;2023-05-10T05:21:12;12.40;99.90
56234;DHT22;42141;53.240;6.580;2023-05-10T05:23:38;12.40;99.90
56234;DHT22;42141;53.240;6.580;2023-05-10T05:26:04;12.40;99.90
56234;DHT22;42141;53.240;6.580;2023-05-10T05:28:29;12.40;99.90
56234;DHT22;42141;53.240;6.580;2023-05-10T05:30:58;12.40;99.90
56234;DHT22;42141;53.240;6.580;2023-05-10T05:33:23;12.00;99.90
56234;DHT22;42141;53.240;6.580;2023-05-10T05:35:49;12.40;99.90
56234;DHT22;42141;53.240;6.580;2023-05-10T05:38:16;12.50;99.90
56234;DHT22;42141;53.240;6.580;2023-05-10T05:40:42;12.60;99.90
56234;DHT22;42141;53.240;6.580;2023-05-10T05:43:08;12.50;99.90
56234;DHT22;42141;53.240;6.580;2023-05-10T05:45:34;12.50;99.90
56234;DHT22;42141;53.240;6.580;2023-05-10T05:48:00;12.50;99.90
56234;DHT22;42141;53.240;6.580;2023-05-10T05:50:26;12.50;99.90
56234;DHT22;42141;53.240;6.580;2023-05-10T05:52:51;12.50;99.90
56234;DHT22;42141;53.240;6.580;2023-05-10T05:55:17;12.60;99.90
56234;DHT22;42141;53.240;6.580;2023-05-10T05:57:43;12.60;99.90
56234;DHT22;42141;53.240;6.580;2023-05-10T06:00:09;12.60;99.90
56234;DHT22;42141;53.240;6.580;2023-05-10T06:02:34;12.60;99.90
56234;DHT22;42141;53.240;6.580;2023-05-10T06:05:00;12.60;99.90
56234;DHT22;42141;53.240;6.580;2023-05-10T06:07:26;12.60;99.90
56234;DHT22;42141;53.240;6.580;2023-05-10T06:09:52;12.60;99.90
56234;DHT22;42141;53.240;6.580;2023-05-10T06:12:17;12.60;99.90
56234;DHT22;42141;53.240;6.580;2023-05-10T06:14:43;12.60;99.90
56234;DHT22;42141;53.240;6.580;2023-05-10T06:17:09;12.60;99.90
56234;DHT22;42141;53.240;6.580;2023-05-10T06:19:34;12.60;99.90
56234;DHT22;42141;53.240;6.580;2023-05-10T06:22:00;12.60;99.90
56234;DHT22;42141;53.240;6.580;2023-05-10T06:24:26;12.60;99.90
56234;DHT22;42141;53.240;6.580;2023-05-10T06:26:52;12.50;99.90
56234;DHT22;42141;53.240;6.580;2023-05-10T06:29:18;12.60;99.90
56234;DHT22;42141;53.240;6.580;2023-05-10T06:31:45;12.50;99.90
56234;DHT22;42141;53.240;6.580;2023-05-10T06:34:11;12.50;99.90
56234;DHT22;42141;53.240;6.580;2023-05-10T06:36:37;12.50;99.90
56234;DHT22;42141;53.240;6.580;2023-05-10T06:39:03;12.50;99.90
56234;DHT22;42141;53.240;6.580;2023-05-10T06:41:28;12.40;99.90
56234;DHT22;42141;53.240;6.580;2023-05-10T06:43:54;12.40;99.90
56234;DHT22;42141;53.240;6.580;2023-05-10T06:46:20;12.40;99.90
56234;DHT22;42141;53.240;6.580;2023-05-10T06:48:45;12.40;99.90
56234;DHT22;42141;53.240;6.580;2023-05-10T06:51:11;12.40;99.90
56234;DHT22;42141;53.240;6.580;2023-05-10T06:53:37;12.40;99.90
56234;DHT22;42141;53.240;6.580;2023-05-10T06:56:03;12.30;99.90
56234;DHT22;42141;53.240;6.580;2023-05-10T06:58:28;12.30;99.90
56234;DHT22;42141;53.240;6.580;2023-05-10T07:00:54;12.30;99.90
56234;DHT22;42141;53.240;6.580;2023-05-10T07:03:20;12.30;99.90
56234;DHT22;42141;53.240;6.580;2023-05-10T07:05:45;12.30;99.90
56234;DHT22;42141;53.240;6.580;2023-05-10T07:08:11;12.30;99.90
56234;DHT22;42141;53.240;6.580;2023-05-10T07:10:37;12.40;99.90
56234;DHT22;42141;53.240;6.580;2023-05-10T07:13:03;12.40;99.90
56234;DHT22;42141;53.240;6.580;2023-05-10T07:15:28;12.40;99.90
56234;DHT22;42141;53.240;6.580;2023-05-10T07:17:54;12.40;99.90
56234;DHT22;42141;53.240;6.580;2023-05-10T07:20:20;12.40;99.90
56234;DHT22;42141;53.240;6.580;2023-05-10T07:22:46;12.40;99.90
56234;DHT22;42141;53.240;6.580;2023-05-10T07:25:12;12.40;99.90
56234;DHT22;42141;53.240;6.580;2023-05-10T07:27:37;12.40;99.90
56234;DHT22;42141;53.240;6.580;2023-05-10T07:30:03;12.40;99.90
56234;DHT22;42141;53.240;6.580;2023-05-10T07:32:29;13.60;99.90
56234;DHT22;42141;53.240;6.580;2023-05-10T07:34:55;12.50;99.90
56234;DHT22;42141;53.240;6.580;2023-05-10T07:37:21;12.60;99.90
56234;DHT22;42141;53.240;6.580;2023-05-10T07:39:47;12.60;99.90
56234;DHT22;42141;53.240;6.580;2023-05-10T07:42:12;12.60;99.90
56234;DHT22;42141;53.240;6.580;2023-05-10T07:44:38;12.70;99.90
56234;DHT22;42141;53.240;6.580;2023-05-10T07:47:04;12.70;99.90
56234;DHT22;42141;53.240;6.580;2023-05-10T07:49:30;12.70;99.90
56234;DHT22;42141;53.240;6.580;2023-05-10T07:51:55;12.80;99.90
56234;DHT22;42141;53.240;6.580;2023-05-10T07:54:21;12.80;99.90
56234;DHT22;42141;53.240;6.580;2023-05-10T07:56:47;12.90;99.90
56234;DHT22;42141;53.240;6.580;2023-05-10T07:59:17;12.90;99.90
56234;DHT22;42141;53.240;6.580;2023-05-10T08:01:43;12.90;99.90
56234;DHT22;42141;53.240;6.580;2023-05-10T08:04:09;12.80;99.90
56234;DHT22;42141;53.240;6.580;2023-05-10T08:06:35;12.90;99.90
56234;DHT22;42141;53.240;6.580;2023-05-10T08:09:01;12.90;99.90
56234;DHT22;42141;53.240;6.580;2023-05-10T08:11:26;12.90;99.90
56234;DHT22;42141;53.240;6.580;2023-05-10T08:13:53;12.90;99.90
56234;DHT22;42141;53.240;6.580;2023-05-10T08:16:20;12.90;99.90
56234;DHT22;42141;53.240;6.580;2023-05-10T08:18:46;12.90;99.90
56234;DHT22;42141;53.240;6.580;2023-05-10T08:21:13;12.90;99.90
56234;DHT22;42141;53.240;6.580;2023-05-10T08:23:39;12.90;99.90
56234;DHT22;42141;53.240;6.580;2023-05-10T08:26:04;12.90;99.90
56234;DHT22;42141;53.240;6.580;2023-05-10T08:28:30;12.90;99.90
56234;DHT22;42141;53.240;6.580;2023-05-10T08:30:56;12.90;99.90
56234;DHT22;42141;53.240;6.580;2023-05-10T08:33:22;12.90;99.90
56234;DHT22;42141;53.240;6.580;2023-05-10T08:35:48;12.90;99.90
56234;DHT22;42141;53.240;6.580;2023-05-10T08:38:14;12.90;99.90
56234;DHT22;42141;53.240;6.580;2023-05-10T08:40:42;13.00;99.90
56234;DHT22;42141;53.240;6.580;2023-05-10T08:43:10;13.00;99.90
56234;DHT22;42141;53.240;6.580;2023-05-10T08:45:44;13.00;99.90
56234;DHT22;42141;53.240;6.580;2023-05-10T08:48:13;13.00;99.90
56234;DHT22;42141;53.240;6.580;2023-05-10T08:50:40;13.10;99.90
56234;DHT22;42141;53.240;6.580;2023-05-10T08:53:09;13.10;99.90
56234;DHT22;42141;53.240;6.580;2023-05-10T08:55:36;13.10;99.90
56234;DHT22;42141;53.240;6.580;2023-05-10T08:58:04;13.10;99.90
56234;DHT22;42141;53.240;6.580;2023-05-10T09:00:31;13.10;99.90
56234;DHT22;42141;53.240;6.580;2023-05-10T09:03:00;13.20;99.90
56234;DHT22;42141;53.240;6.580;2023-05-10T09:05:26;13.10;99.90
56234;DHT22;42141;53.240;6.580;2023-05-10T09:07:52;13.10;99.90
56234;DHT22;42141;53.240;6.580;2023-05-10T09:10:19;13.10;99.90
56234;DHT22;42141;53.240;6.580;2023-05-10T09:12:45;13.10;99.90
56234;DHT22;42141;53.240;6.580;2023-05-10T09:15:12;13.10;99.90
56234;DHT22;42141;53.240;6.580;2023-05-10T09:17:40;13.20;99.90
56234;DHT22;42141;53.240;6.580;2023-05-10T09:20:06;13.30;99.90
56234;DHT22;42141;53.240;6.580;2023-05-10T09:22:33;13.40;99.90
56234;DHT22;42141;53.240;6.580;2023-05-10T09:25:09;13.40;99.90
56234;DHT22;42141;53.240;6.580;2023-05-10T09:27:37;13.50;99.90
56234;DHT22;42141;53.240;6.580;2023-05-10T09:30:04;13.50;99.90
56234;DHT22;42141;53.240;6.580;2023-05-10T09:32:41;13.60;99.90
56234;DHT22;42141;53.240;6.580;2023-05-10T09:35:11;13.70;99.90
56234;DHT22;42141;53.240;6.580;2023-05-10T09:37:42;13.80;99.90
56234;DHT22;42141;53.240;6.580;2023-05-10T09:40:18;13.80;99.90
56234;DHT22;42141;53.240;6.580;2023-05-10T09:42:58;13.90;99.90
56234;DHT22;42141;53.240;6.580;2023-05-10T09:45:30;14.10;99.90
56234;DHT22;42141;53.240;6.580;2023-05-10T09:47:56;14.20;99.90
56234;DHT22;42141;53.240;6.580;2023-05-10T09:50:22;14.20;99.90
56234;DHT22;42141;53.240;6.580;2023-05-10T09:52:59;14.30;99.90
56234;DHT22;42141;53.240;6.580;2023-05-10T09:55:41;14.30;99.90
56234;DHT22;42141;53.240;6.580;2023-05-10T09:58:07;14.30;99.90
56234;DHT22;42141;53.240;6.580;2023-05-10T10:00:45;14.30;99.90
56234;DHT22;42141;53.240;6.580;2023-05-10T10:03:18;14.20;99.90
56234;DHT22;42141;53.240;6.580;2023-05-10T10:05:45;14.20;99.90
56234;DHT22;42141;53.240;6.580;2023-05-10T10:08:12;14.20;99.90
56234;DHT22;42141;53.240;6.580;2023-05-10T10:10:39;14.20;99.90
56234;DHT22;42141;53.240;6.580;2023-05-10T10:13:10;14.30;99.90
56234;DHT22;42141;53.240;6.580;2023-05-10T10:15:36;14.40;99.90
56234;DHT22;42141;53.240;6.580;2023-05-10T10:18:01;14.50;99.90
56234;DHT22;42141;53.240;6.580;2023-05-10T10:20:29;14.60;99.90
56234;DHT22;42141;53.240;6.580;2023-05-10T10:22:55;14.70;99.90
56234;DHT22;42141;53.240;6.580;2023-05-10T10:25:21;14.80;99.90
56234;DHT22;42141;53.240;6.580;2023-05-10T10:30:27;15.00;99.90
56234;DHT22;42141;53.240;6.580;2023-05-10T10:35:36;15.20;99.90
56234;DHT22;42141;53.240;6.580;2023-05-10T10:38:02;15.30;99.90
56234;DHT22;42141;53.240;6.580;2023-05-10T10:40:32;15.40;99.90
56234;DHT22;42141;53.240;6.580;2023-05-10T10:43:22;15.40;99.90
56234;DHT22;42141;53.240;6.580;2023-05-10T10:46:16;15.50;99.90
56234;DHT22;42141;53.240;6.580;2023-05-10T10:48:51;15.60;99.90
56234;DHT22;42141;53.240;6.580;2023-05-10T10:51:37;15.70;99.90
56234;DHT22;42141;53.240;6.580;2023-05-10T10:54:12;15.70;99.90
56234;DHT22;42141;53.240;6.580;2023-05-10T10:56:38;15.80;99.90
56234;DHT22;42141;53.240;6.580;2023-05-10T10:59:04;15.80;99.90
56234;DHT22;42141;53.240;6.580;2023-05-10T11:01:33;15.90;99.90
56234;DHT22;42141;53.240;6.580;2023-05-10T11:06:33;15.90;99.90
56234;DHT22;42141;53.240;6.580;2023-05-10T11:09:05;15.80;99.90
56234;DHT22;42141;53.240;6.580;2023-05-10T11:11:31;15.80;99.90
56234;DHT22;42141;53.240;6.580;2023-05-10T11:14:03;15.70;99.90
56234;DHT22;42141;53.240;6.580;2023-05-10T11:16:41;15.60;99.90
56234;DHT22;42141;53.240;6.580;2023-05-10T11:19:09;15.60;99.90
56234;DHT22;42141;53.240;6.580;2023-05-10T11:24:18;15.50;99.90
56234;DHT22;42141;53.240;6.580;2023-05-10T11:26:44;15.40;99.90
56234;DHT22;42141;53.240;6.580;2023-05-10T11:29:12;15.40;99.90
56234;DHT22;42141;53.240;6.580;2023-05-10T11:31:43;15.50;99.90
56234;DHT22;42141;53.240;6.580;2023-05-10T11:34:09;15.70;99.90
56234;DHT22;42141;53.240;6.580;2023-05-10T11:36:36;15.90;99.90
56234;DHT22;42141;53.240;6.580;2023-05-10T11:39:03;15.90;99.90
56234;DHT22;42141;53.240;6.580;2023-05-10T11:41:30;16.00;99.90
56234;DHT22;42141;53.240;6.580;2023-05-10T11:43:57;16.00;99.90
56234;DHT22;42141;53.240;6.580;2023-05-10T11:46:25;15.90;99.90
56234;DHT22;42141;53.240;6.580;2023-05-10T11:48:59;15.90;99.90
56234;DHT22;42141;53.240;6.580;2023-05-10T11:51:35;16.00;99.90
56234;DHT22;42141;53.240;6.580;2023-05-10T11:54:08;16.10;99.90
56234;DHT22;42141;53.240;6.580;2023-05-10T11:56:35;16.10;99.90
56234;DHT22;42141;53.240;6.580;2023-05-10T11:59:01;16.10;99.90
56234;DHT22;42141;53.240;6.580;2023-05-10T12:01:28;16.20;99.90
56234;DHT22;42141;53.240;6.580;2023-05-10T12:03:56;16.20;99.90
56234;DHT22;42141;53.240;6.580;2023-05-10T12:06:32;16.30;99.90
56234;DHT22;42141;53.240;6.580;2023-05-10T12:09:05;16.20;99.90
56234;DHT22;42141;53.240;6.580;2023-05-10T12:11:32;16.20;99.90
56234;DHT22;42141;53.240;6.580;2023-05-10T12:13:57;16.70;99.90
56234;DHT22;42141;53.240;6.580;2023-05-10T12:16:25;15.90;99.90
56234;DHT22;42141;53.240;6.580;2023-05-10T12:18:52;15.90;99.90
56234;DHT22;42141;53.240;6.580;2023-05-10T12:21:19;15.80;99.90
56234;DHT22;42141;53.240;6.580;2023-05-10T12:23:46;15.80;99.90
56234;DHT22;42141;53.240;6.580;2023-05-10T12:26:12;15.70;99.90
56234;DHT22;42141;53.240;6.580;2023-05-10T12:28:38;15.60;99.90
56234;DHT22;42141;53.240;6.580;2023-05-10T12:31:08;15.50;99.90
56234;DHT22;42141;53.240;6.580;2023-05-10T12:33:41;15.40;99.90
56234;DHT22;42141;53.240;6.580;2023-05-10T12:36:15;15.30;99.90
56234;DHT22;42141;53.240;6.580;2023-05-10T12:38:42;15.30;99.90
56234;DHT22;42141;53.240;6.580;2023-05-10T12:41:16;15.30;99.90
56234;DHT22;42141;53.240;6.580;2023-05-10T12:43:42;15.30;99.90
56234;DHT22;42141;53.240;6.580;2023-05-10T12:46:17;15.30;99.90
56234;DHT22;42141;53.240;6.580;2023-05-10T12:48:44;15.30;99.90
56234;DHT22;42141;53.240;6.580;2023-05-10T12:51:10;15.20;99.90
56234;DHT22;42141;53.240;6.580;2023-05-10T12:53:42;15.20;99.90
56234;DHT22;42141;53.240;6.580;2023-05-10T12:56:11;15.20;99.90
56234;DHT22;42141;53.240;6.580;2023-05-10T12:58:36;15.30;99.90
56234;DHT22;42141;53.240;6.580;2023-05-10T13:01:02;15.30;99.90
56234;DHT22;42141;53.240;6.580;2023-05-10T13:03:29;15.50;99.90
56234;DHT22;42141;53.240;6.580;2023-05-10T13:05:55;15.50;99.90
56234;DHT22;42141;53.240;6.580;2023-05-10T13:08:21;15.60;99.90
56234;DHT22;42141;53.240;6.580;2023-05-10T13:10:47;15.60;99.90
56234;DHT22;42141;53.240;6.580;2023-05-10T13:13:14;15.70;99.90
56234;DHT22;42141;53.240;6.580;2023-05-10T13:15:40;15.70;99.90
56234;DHT22;42141;53.240;6.580;2023-05-10T13:18:06;15.70;99.90
56234;DHT22;42141;53.240;6.580;2023-05-10T13:20:32;15.80;99.90
56234;DHT22;42141;53.240;6.580;2023-05-10T13:22:57;15.90;99.90
56234;DHT22;42141;53.240;6.580;2023-05-10T13:25:23;16.00;99.90
56234;DHT22;42141;53.240;6.580;2023-05-10T13:27:49;16.10;99.90
56234;DHT22;42141;53.240;6.580;2023-05-10T13:30:15;16.20;99.90
56234;DHT22;42141;53.240;6.580;2023-05-10T13:32:40;16.30;99.90
56234;DHT22;42141;53.240;6.580;2023-05-10T13:35:07;16.40;99.90
56234;DHT22;42141;53.240;6.580;2023-05-10T13:37:33;16.50;99.90
56234;DHT22;42141;53.240;6.580;2023-05-10T13:40:03;16.60;99.90
56234;DHT22;42141;53.240;6.580;2023-05-10T13:42:29;16.50;99.90
56234;DHT22;42141;53.240;6.580;2023-05-10T13:44:55;16.50;99.90
56234;DHT22;42141;53.240;6.580;2023-05-10T13:47:21;16.50;99.90
56234;DHT22;42141;53.240;6.580;2023-05-10T13:49:47;16.50;99.90
56234;DHT22;42141;53.240;6.580;2023-05-10T13:52:13;16.40;99.90
56234;DHT22;42141;53.240;6.580;2023-05-10T13:54:39;16.30;99.90
56234;DHT22;42141;53.240;6.580;2023-05-10T13:57:05;16.20;99.90
56234;DHT22;42141;53.240;6.580;2023-05-10T13:59:30;16.20;99.90
56234;DHT22;42141;53.240;6.580;2023-05-10T14:02:00;16.10;99.90
56234;DHT22;42141;53.240;6.580;2023-05-10T14:04:29;16.90;99.90
56234;DHT22;42141;53.240;6.580;2023-05-10T14:06:56;16.10;99.90
56234;DHT22;42141;53.240;6.580;2023-05-10T14:09:21;16.20;99.90
56234;DHT22;42141;53.240;6.580;2023-05-10T14:11:47;16.20;99.90
56234;DHT22;42141;53.240;6.580;2023-05-10T14:14:13;16.20;99.90
56234;DHT22;42141;53.240;6.580;2023-05-10T14:16:42;16.20;99.90
56234;DHT22;42141;53.240;6.580;2023-05-10T14:19:09;16.20;99.90
56234;DHT22;42141;53.240;6.580;2023-05-10T14:21:34;16.20;99.90
56234;DHT22;42141;53.240;6.580;2023-05-10T14:24:00;16.10;99.90
56234;DHT22;42141;53.240;6.580;2023-05-10T14:26:26;16.10;99.90
56234;DHT22;42141;53.240;6.580;2023-05-10T14:28:53;16.00;99.90
56234;DHT22;42141;53.240;6.580;2023-05-10T14:31:18;15.90;99.90
56234;DHT22;42141;53.240;6.580;2023-05-10T14:33:46;15.90;99.90
56234;DHT22;42141;53.240;6.580;2023-05-10T14:36:12;16.00;99.90
56234;DHT22;42141;53.240;6.580;2023-05-10T14:38:39;16.10;99.90
56234;DHT22;42141;53.240;6.580;2023-05-10T14:41:04;16.20;99.90
56234;DHT22;42141;53.240;6.580;2023-05-10T14:43:30;16.30;99.90
56234;DHT22;42141;53.240;6.580;2023-05-10T14:45:56;16.50;99.90
56234;DHT22;42141;53.240;6.580;2023-05-10T14:48:22;16.60;99.90
56234;DHT22;42141;53.240;6.580;2023-05-10T14:50:48;16.80;99.90
56234;DHT22;42141;53.240;6.580;2023-05-10T14:53:15;16.90;99.90
56234;DHT22;42141;53.240;6.580;2023-05-10T14:55:41;17.00;99.90
56234;DHT22;42141;53.240;6.580;2023-05-10T14:58:06;17.10;99.90
56234;DHT22;42141;53.240;6.580;2023-05-10T15:00:32;17.20;99.90
56234;DHT22;42141;53.240;6.580;2023-05-10T15:02:58;17.30;99.90
56234;DHT22;42141;53.240;6.580;2023-05-10T15:05:24;17.30;99.90
56234;DHT22;42141;53.240;6.580;2023-05-10T15:07:49;17.20;99.90
56234;DHT22;42141;53.240;6.580;2023-05-10T15:10:15;17.20;99.90
56234;DHT22;42141;53.240;6.580;2023-05-10T15:12:44;17.20;99.90
56234;DHT22;42141;53.240;6.580;2023-05-10T15:15:10;17.30;99.90
56234;DHT22;42141;53.240;6.580;2023-05-10T15:17:36;17.40;99.90
56234;DHT22;42141;53.240;6.580;2023-05-10T15:20:02;17.40;99.90
56234;DHT22;42141;53.240;6.580;2023-05-10T15:22:29;17.40;99.90
56234;DHT22;42141;53.240;6.580;2023-05-10T15:24:57;17.30;99.90
56234;DHT22;42141;53.240;6.580;2023-05-10T15:27:24;17.30;99.90
56234;DHT22;42141;53.240;6.580;2023-05-10T15:29:50;17.30;99.90
56234;DHT22;42141;53.240;6.580;2023-05-10T15:32:16;17.30;99.90
56234;DHT22;42141;53.240;6.580;2023-05-10T15:34:42;17.30;99.90
56234;DHT22;42141;53.240;6.580;2023-05-10T15:37:08;17.20;99.90
56234;DHT22;42141;53.240;6.580;2023-05-10T15:39:33;17.20;99.90
56234;DHT22;42141;53.240;6.580;2023-05-10T15:41:59;17.10;99.90
56234;DHT22;42141;53.240;6.580;2023-05-10T15:44:25;17.00;99.90
56234;DHT22;42141;53.240;6.580;2023-05-10T15:46:50;16.90;99.90
56234;DHT22;42141;53.240;6.580;2023-05-10T15:49:17;16.80;99.90
56234;DHT22;42141;53.240;6.580;2023-05-10T15:51:42;16.70;99.90
56234;DHT22;42141;53.240;6.580;2023-05-10T15:54:08;16.60;99.90